Time;durP1;ratioP1;P1;durP2;ratioP2;P2;SDS_P1;SDS_P2;PMS_P1;PMS_P2;Temp;Humidity;BMP_temperature;BMP_pressure;BME280_temperature;BME280_humidity;BME280_pressure;Samples;Min_cycle;Max_cycle;Signal;HPM_P1;HPM_P2
2023/07/14 00:00:16;;;;;;;1.90;1.63;;;22.20;57.10;;;;;;5037986;28;20561;-77
2023/07/14 00:02:44;;;;;;;2.30;1.90;;;22.30;57.30;;;;;;5037421;28;20061;-78
2023/07/14 00:05:19;;;;;;;2.70;1.83;;;22.30;57.30;;;;;;5037719;28;20029;-77
2023/07/14 00:07:50;;;;;;;2.20;1.67;;;22.20;57.40;;;;;;5054323;28;20442;-78
2023/07/14 00:10:22;;;;;;;1.73;1.52;;;22.20;57.40;;;;;;5037664;28;20037;-77
2023/07/14 00:12:51;;;;;;;2.55;1.52;;;22.20;58.00;;;;;;5054174;28;20043;-77
2023/07/14 00:15:18;;;;;;;2.53;1.88;;;22.20;57.40;;;;;;5054877;28;20021;-78
2023/07/14 00:17:46;;;;;;;2.28;1.73;;;22.10;57.40;;;;;;5053768;28;20029;-77
2023/07/14 00:20:17;;;;;;;3.08;1.90;;;22.10;57.50;;;;;;5053335;28;20043;-77
2023/07/14 00:22:43;;;;;;;2.10;1.80;;;22.10;57.50;;;;;;5037427;28;20025;-77
2023/07/14 00:25:12;;;;;;;2.13;1.70;;;22.10;57.50;;;;;;5037410;28;20032;-78
2023/07/14 00:27:39;;;;;;;3.20;1.80;;;22.10;57.60;;;;;;5037025;28;20036;-78
2023/07/14 00:30:31;;;;;;;2.47;2.15;;;22.00;57.60;;;;;;5053546;28;20037;-78
2023/07/14 00:32:57;;;;;;;2.33;1.67;;;22.00;57.70;;;;;;5050132;28;20557;-78
2023/07/14 00:35:30;;;;;;;2.55;1.67;;;22.00;57.60;;;;;;5053569;28;20155;-77
2023/07/14 00:37:57;;;;;;;2.08;1.67;;;22.00;57.70;;;;;;5050302;28;20041;-77
2023/07/14 00:40:39;;;;;;;1.67;1.55;;;22.00;57.70;;;;;;5053459;28;20374;-77
2023/07/14 00:43:19;;;;;;;2.33;1.90;;;22.00;57.90;;;;;;5071102;28;20033;-77
2023/07/14 00:45:51;;;;;;;2.75;1.95;;;22.00;58.00;;;;;;5053570;28;20458;-77
2023/07/14 00:48:22;;;;;;;2.50;1.90;;;21.90;57.90;;;;;;5053558;28;20542;-78
2023/07/14 00:50:54;;;;;;;2.97;2.08;;;21.90;58.00;;;;;;5053166;28;20056;-78
2023/07/14 00:53:23;;;;;;;3.00;1.95;;;21.90;58.00;;;;;;5053354;28;20033;-78
2023/07/14 00:55:58;;;;;;;3.00;2.10;;;21.90;58.00;;;;;;5053068;28;20029;-77
2023/07/14 00:58:27;;;;;;;3.08;2.13;;;21.90;58.10;;;;;;5054989;28;20029;-77
2023/07/14 01:01:05;;;;;;;2.47;1.95;;;21.80;58.10;;;;;;5053695;28;20412;-77
2023/07/14 01:03:32;;;;;;;2.33;1.90;;;21.80;58.20;;;;;;5052982;28;20033;-78
2023/07/14 01:06:02;;;;;;;2.78;1.90;;;21.80;58.20;;;;;;5053008;28;20032;-78
2023/07/14 01:08:30;;;;;;;4.95;2.33;;;21.80;58.20;;;;;;5052823;28;20021;-77
2023/07/14 01:10:56;;;;;;;2.78;2.05;;;21.80;58.20;;;;;;5036311;28;20029;-77
2023/07/14 01:13:24;;;;;;;2.30;1.77;;;21.80;58.20;;;;;;5053090;28;20033;-78
2023/07/14 01:15:52;;;;;;;2.30;2.00;;;21.70;58.30;;;;;;5053002;28;20037;-78
2023/07/14 01:18:18;;;;;;;2.28;1.85;;;21.70;58.30;;;;;;5054177;28;20369;-77
2023/07/14 01:20:45;;;;;;;2.30;1.80;;;21.70;58.40;;;;;;5036032;28;20033;-77
2023/07/14 01:23:43;;;;;;;3.47;1.60;;;21.70;58.40;;;;;;5053725;28;20380;-77
2023/07/14 01:26:33;;;;;;;1.88;1.63;;;21.70;58.50;;;;;;5004567;28;20037;-78
2023/07/14 01:28:59;;;;;;;2.60;1.77;;;21.70;58.50;;;;;;5052814;28;20087;-77
2023/07/14 01:31:25;;;;;;;2.28;1.65;;;21.60;58.40;;;;;;5035202;28;20029;-77
2023/07/14 01:33:53;;;;;;;2.30;1.65;;;21.60;58.50;;;;;;5036404;28;20040;-77
2023/07/14 01:36:21;;;;;;;2.72;1.95;;;21.60;58.50;;;;;;5019426;28;20120;-77
2023/07/14 01:38:48;;;;;;;1.92;1.55;;;21.60;58.60;;;;;;5036627;28;20041;-77
2023/07/14 01:41:14;;;;;;;2.35;1.80;;;21.60;58.60;;;;;;5035757;28;20032;-78
2023/07/14 01:43:40;;;;;;;2.53;1.98;;;21.50;58.60;;;;;;5036533;28;20025;-78
2023/07/14 01:46:17;;;;;;;1.98;1.75;;;21.50;58.80;;;;;;5052178;28;20028;-77
2023/07/14 01:49:09;;;;;;;2.20;1.80;;;21.50;58.80;;;;;;5052106;28;20040;-78
2023/07/14 01:51:42;;;;;;;2.13;1.80;;;21.40;58.80;;;;;;5007168;28;20103;-77
2023/07/14 01:54:31;;;;;;;2.33;1.83;;;21.40;58.80;;;;;;5035313;28;20087;-77
2023/07/14 01:57:01;;;;;;;2.72;1.80;;;21.40;58.80;;;;;;5036489;28;20025;-77
2023/07/14 01:59:32;;;;;;;2.30;1.90;;;21.40;58.90;;;;;;5038464;28;20049;-78
2023/07/14 02:02:00;;;;;;;2.53;1.80;;;21.40;58.90;;;;;;5057821;28;20079;-78
2023/07/14 02:04:30;;;;;;;3.13;1.90;;;21.30;58.90;;;;;;5056809;28;20033;-79
2023/07/14 02:06:58;;;;;;;2.50;1.90;;;21.30;58.90;;;;;;5058612;28;20049;-79
2023/07/14 02:09:24;;;;;;;1.95;1.75;;;21.30;58.90;;;;;;5059763;28;20028;-79
2023/07/14 02:11:59;;;;;;;2.40;1.70;;;21.30;59.00;;;;;;5056377;28;20025;-79
2023/07/14 02:14:28;;;;;;;2.55;1.80;;;21.30;59.10;;;;;;5052412;28;20029;-79
2023/07/14 02:17:00;;;;;;;2.08;1.73;;;21.30;59.10;;;;;;5054230;28;20074;-78
2023/07/14 02:19:26;;;;;;;2.17;1.92;;;21.30;59.10;;;;;;5052579;28;20025;-79
2023/07/14 02:21:56;;;;;;;2.35;1.90;;;21.20;59.10;;;;;;5035488;28;20029;-79
2023/07/14 02:24:24;;;;;;;2.42;1.73;;;21.20;59.10;;;;;;5035579;28;20040;-78
2023/07/14 02:26:56;;;;;;;2.25;1.88;;;21.20;59.20;;;;;;5052133;28;20031;-78
2023/07/14 02:29:22;;;;;;;2.42;1.90;;;21.20;59.20;;;;;;5051515;28;20045;-79
2023/07/14 02:32:13;;;;;;;2.22;1.90;;;21.20;59.30;;;;;;5051965;28;20041;-79
2023/07/14 02:34:46;;;;;;;1.83;1.65;;;21.10;59.30;;;;;;5035469;28;20024;-79
2023/07/14 02:38:05;;;;;;;2.20;1.80;;;21.10;59.30;;;;;;5052484;28;20036;-78
2023/07/14 02:40:41;;;;;;;2.08;1.67;;;21.10;59.40;;;;;;5052770;28;20044;-78
2023/07/14 02:43:10;;;;;;;2.45;1.70;;;21.00;59.30;;;;;;5054869;28;20079;-78
2023/07/14 02:45:53;;;;;;;2.70;1.77;;;21.00;59.40;;;;;;5055895;28;20025;-79
2023/07/14 02:48:24;;;;;;;3.50;2.10;;;21.00;59.40;;;;;;5056998;28;20032;-78
2023/07/14 02:50:50;;;;;;;2.22;1.92;;;21.00;59.50;;;;;;5055231;28;20485;-79
2023/07/14 02:53:17;;;;;;;1.88;1.52;;;21.00;59.50;;;;;;5039520;28;20030;-78
2023/07/14 02:55:43;;;;;;;2.60;1.83;;;21.00;59.50;;;;;;5039210;28;20065;-79
2023/07/14 02:58:09;;;;;;;3.55;2.00;;;21.00;59.60;;;;;;5055519;28;20535;-79
2023/07/14 03:00:35;;;;;;;3.03;1.80;;;20.90;59.50;;;;;;5055314;28;20041;-79
2023/07/14 03:03:01;;;;;;;2.58;1.65;;;20.90;59.50;;;;;;5055425;28;20060;-78
2023/07/14 03:05:28;;;;;;;2.05;1.58;;;20.90;59.60;;;;;;5055108;28;20037;-78
2023/07/14 03:07:55;;;;;;;3.03;1.55;;;20.90;59.70;;;;;;5038475;28;20029;-79
2023/07/14 03:10:20;;;;;;;2.20;1.75;;;20.90;59.70;;;;;;5055112;28;20091;-78
2023/07/14 03:12:46;;;;;;;2.42;1.80;;;20.90;59.70;;;;;;5038590;28;20029;-79
2023/07/14 03:15:14;;;;;;;3.00;1.73;;;20.90;59.70;;;;;;5038702;28;20065;-78
2023/07/14 03:17:40;;;;;;;2.45;1.60;;;20.80;59.70;;;;;;5038480;28;20087;-78
2023/07/14 03:20:10;;;;;;;2.58;1.85;;;20.80;59.70;;;;;;5054909;28;20036;-78
2023/07/14 03:22:36;;;;;;;2.22;1.73;;;20.80;59.80;;;;;;5055416;28;20043;-79
2023/07/14 03:25:02;;;;;;;2.63;1.98;;;20.80;59.80;;;;;;5056391;28;20128;-79
2023/07/14 03:27:28;;;;;;;2.42;1.75;;;20.80;59.80;;;;;;5038797;28;20029;-78
2023/07/14 03:29:55;;;;;;;2.03;1.65;;;20.80;59.80;;;;;;5021396;28;20041;-79
2023/07/14 03:32:21;;;;;;;2.67;1.70;;;20.80;59.90;;;;;;5054381;28;20520;-79
2023/07/14 03:34:47;;;;;;;2.13;1.77;;;20.70;59.80;;;;;;5038746;28;20029;-78
2023/07/14 03:37:13;;;;;;;2.40;1.63;;;20.70;59.90;;;;;;5071522;28;20072;-78
2023/07/14 03:39:39;;;;;;;1.80;1.50;;;20.70;59.90;;;;;;5055853;28;20029;-78
2023/07/14 03:42:04;;;;;;;2.97;1.98;;;20.70;60.00;;;;;;5054739;28;20036;-78
2023/07/14 03:44:32;;;;;;;2.03;1.67;;;20.70;60.00;;;;;;5037835;28;20041;-79
2023/07/14 03:46:58;;;;;;;2.30;1.85;;;20.70;60.00;;;;;;5054996;28;20104;-78
2023/07/14 03:49:24;;;;;;;3.38;2.03;;;20.70;60.00;;;;;;5055119;28;20491;-78
2023/07/14 03:51:51;;;;;;;3.30;1.90;;;20.70;60.00;;;;;;5041171;28;20116;-78
2023/07/14 03:54:17;;;;;;;2.47;1.80;;;20.70;60.00;;;;;;5056597;28;20037;-79
2023/07/14 03:56:44;;;;;;;1.92;1.70;;;20.60;60.00;;;;;;5057674;28;20087;-79
2023/07/14 03:59:11;;;;;;;3.60;1.75;;;20.60;60.00;;;;;;5040980;28;20032;-78
2023/07/14 04:01:37;;;;;;;2.28;1.70;;;20.60;60.00;;;;;;5057829;28;20035;-79
2023/07/14 04:04:03;;;;;;;2.40;1.95;;;20.60;60.00;;;;;;5041095;28;20059;-79
2023/07/14 04:06:31;;;;;;;2.33;1.90;;;20.60;60.10;;;;;;5058062;28;20043;-78
2023/07/14 04:08:59;;;;;;;2.17;1.90;;;20.60;60.10;;;;;;5057328;28;20112;-79
2023/07/14 04:11:29;;;;;;;2.80;1.90;;;20.60;60.10;;;;;;5041198;28;20047;-78
2023/07/14 04:13:54;;;;;;;2.45;1.60;;;20.60;60.10;;;;;;5075486;28;20365;-80
2023/07/14 04:16:23;;;;;;;2.50;1.88;;;20.50;60.20;;;;;;5073990;28;20558;-78
2023/07/14 04:18:49;;;;;;;2.22;1.98;;;20.50;60.20;;;;;;5057781;28;20481;-79
2023/07/14 04:21:15;;;;;;;2.42;1.77;;;20.50;60.20;;;;;;5040743;28;20039;-78
2023/07/14 04:23:41;;;;;;;2.15;1.83;;;20.50;60.20;;;;;;5040365;28;20043;-76
2023/07/14 04:26:08;;;;;;;2.78;2.15;;;20.40;60.20;;;;;;5040069;28;20029;-77
2023/07/14 04:28:35;;;;;;;3.08;2.13;;;20.40;60.20;;;;;;5075143;28;20036;-77
2023/07/14 04:31:01;;;;;;;2.10;1.65;;;20.50;60.30;;;;;;5074541;28;20036;-78
2023/07/14 04:33:27;;;;;;;2.85;2.13;;;20.40;60.20;;;;;;5057858;28;20039;-85
2023/07/14 04:35:54;;;;;;;2.05;1.65;;;20.40;60.20;;;;;;5041160;28;20040;-81
2023/07/14 04:38:22;;;;;;;2.67;2.00;;;20.40;60.30;;;;;;5040221;28;20025;-81
2023/07/14 04:40:48;;;;;;;2.60;2.00;;;20.40;60.30;;;;;;5040323;28;20048;-81
2023/07/14 04:43:15;;;;;;;2.65;2.05;;;20.40;60.30;;;;;;5056748;28;20059;-80
2023/07/14 04:45:43;;;;;;;3.08;2.00;;;20.40;60.40;;;;;;5057089;28;20060;-80
2023/07/14 04:48:12;;;;;;;2.47;1.80;;;20.40;60.40;;;;;;5056832;28;20032;-80
2023/07/14 04:50:38;;;;;;;2.33;1.75;;;20.40;60.40;;;;;;5074311;28;20550;-80
2023/07/14 04:53:05;;;;;;;3.17;2.13;;;20.40;60.40;;;;;;5056347;28;20055;-80
2023/07/14 04:55:40;;;;;;;2.45;1.70;;;20.40;60.40;;;;;;5073714;28;20033;-81
2023/07/14 04:58:06;;;;;;;;;;;20.30;60.50;;;;;;5075175;28;20028;-75
2023/07/14 05:00:33;;;;;;;1.90;1.58;;;20.30;60.20;;;;;;5056284;28;20104;-78
2023/07/14 05:02:59;;;;;;;1.80;1.58;;;20.30;60.20;;;;;;5039289;28;20032;-76
2023/07/14 05:05:26;;;;;;;2.22;1.80;;;20.30;60.30;;;;;;5038755;28;20029;-75
2023/07/14 05:07:52;;;;;;;1.90;1.70;;;20.30;60.40;;;;;;5073813;28;20037;-81
2023/07/14 05:10:20;;;;;;;2.25;1.95;;;20.30;60.40;;;;;;5073843;28;20039;-85
2023/07/14 05:12:51;;;;;;;2.30;1.90;;;20.30;60.50;;;;;;5056841;28;20038;-79
2023/07/14 05:15:17;;;;;;;2.78;2.03;;;20.30;60.60;;;;;;5057214;28;20082;-81
2023/07/14 05:17:43;;;;;;;3.10;1.95;;;20.30;60.50;;;;;;5023044;28;20021;-82
2023/07/14 05:20:13;;;;;;;2.40;2.03;;;20.30;60.50;;;;;;5056601;28;20036;-83
2023/07/14 05:22:45;;;;;;;2.63;1.88;;;20.30;60.60;;;;;;5040360;28;20056;-83
2023/07/14 05:25:12;;;;;;;2.00;1.77;;;20.30;60.60;;;;;;5056956;28;20032;-82
2023/07/14 05:27:38;;;;;;;2.70;2.10;;;20.30;60.60;;;;;;5072969;28;20033;-82
2023/07/14 05:30:09;;;;;;;2.40;1.90;;;20.30;60.60;;;;;;5039767;28;20035;-79
2023/07/14 05:32:35;;;;;;;3.08;2.10;;;20.30;60.60;;;;;;5040116;28;20044;-78
2023/07/14 05:35:01;;;;;;;3.05;2.10;;;20.30;60.60;;;;;;5056247;28;20032;-79
2023/07/14 05:37:27;;;;;;;2.53;2.05;;;20.30;60.60;;;;;;5072414;28;20098;-80
2023/07/14 05:39:52;;;;;;;2.95;2.17;;;20.30;60.60;;;;;;5074441;28;20040;-80
2023/07/14 05:42:18;;;;;;;2.17;1.75;;;20.30;60.60;;;;;;5056087;28;20036;-80
2023/07/14 05:44:44;;;;;;;2.00;1.73;;;20.30;60.60;;;;;;5055218;28;20036;-79
2023/07/14 05:47:10;;;;;;;2.22;1.90;;;20.30;60.60;;;;;;5023427;28;20036;-79
2023/07/14 05:49:36;;;;;;;2.65;2.00;;;20.30;60.70;;;;;;5055412;28;20024;-79
2023/07/14 05:52:03;;;;;;;2.53;1.92;;;20.40;60.70;;;;;;5056069;28;20085;-79
2023/07/14 05:54:29;;;;;;;3.45;2.13;;;20.30;60.70;;;;;;5039231;28;20028;-79
2023/07/14 05:56:55;;;;;;;2.30;1.88;;;20.30;60.70;;;;;;5055528;28;20389;-80
2023/07/14 05:59:21;;;;;;;2.33;1.85;;;20.30;60.70;;;;;;5055864;28;20078;-80
2023/07/14 06:01:48;;;;;;;2.65;1.80;;;20.40;60.80;;;;;;5056642;28;20146;-80
2023/07/14 06:04:15;;;;;;;2.72;2.10;;;20.40;60.70;;;;;;5055512;28;20071;-80
2023/07/14 06:06:42;;;;;;;3.30;2.28;;;20.40;60.70;;;;;;5039153;28;20085;-79
2023/07/14 06:09:09;;;;;;;3.22;2.03;;;20.40;60.70;;;;;;5039012;28;20036;-79
2023/07/14 06:11:35;;;;;;;2.35;1.83;;;20.40;60.70;;;;;;5073521;28;20033;-79
2023/07/14 06:14:02;;;;;;;2.65;2.10;;;20.40;60.70;;;;;;5039434;28;20469;-79
2023/07/14 06:16:28;;;;;;;2.55;1.92;;;20.40;60.80;;;;;;5056877;28;20036;-79
2023/07/14 06:18:54;;;;;;;3.33;2.10;;;20.50;60.80;;;;;;5069753;28;20020;-79
2023/07/14 06:21:20;;;;;;;2.42;2.00;;;20.40;60.70;;;;;;5077204;28;20033;-80
2023/07/14 06:23:48;;;;;;;2.17;1.85;;;20.40;60.70;;;;;;5074888;28;20063;-79
2023/07/14 06:26:14;;;;;;;2.13;1.75;;;20.40;60.70;;;;;;5067341;28;20107;-78
2023/07/14 06:28:42;;;;;;;2.38;1.70;;;20.40;60.70;;;;;;5069638;28;20074;-80
2023/07/14 06:31:12;;;;;;;2.00;1.80;;;20.40;60.70;;;;;;5073775;28;20043;-78
2023/07/14 06:33:38;;;;;;;2.10;1.75;;;20.50;60.80;;;;;;5060182;28;20078;-79
2023/07/14 06:36:04;;;;;;;2.92;1.90;;;20.40;60.70;;;;;;5059928;28;20024;-80
2023/07/14 06:38:30;;;;;;;2.33;1.65;;;20.50;60.70;;;;;;5060135;28;20084;-80
2023/07/14 06:41:04;;;;;;;2.10;1.70;;;20.50;60.70;;;;;;5059650;28;20082;-81
2023/07/14 06:43:32;;;;;;;1.60;1.40;;;20.50;60.80;;;;;;5076925;28;20112;-79
2023/07/14 06:45:58;;;;;;;1.83;1.60;;;20.50;60.70;;;;;;5059828;28;20096;-81
2023/07/14 06:48:26;;;;;;;2.35;1.98;;;20.50;60.60;;;;;;5042325;28;20086;-84
2023/07/14 06:50:52;;;;;;;2.20;1.75;;;20.60;60.70;;;;;;5042867;28;20497;-82
2023/07/14 06:53:18;;;;;;;2.67;1.83;;;20.60;60.70;;;;;;5077442;28;20033;-83
2023/07/14 06:55:45;;;;;;;4.25;1.90;;;20.60;60.60;;;;;;5059311;28;20041;-80
2023/07/14 06:58:11;;;;;;;2.42;1.90;;;20.60;60.60;;;;;;5076464;28;20035;-81
2023/07/14 07:00:37;;;;;;;2.35;1.65;;;20.60;60.60;;;;;;5058556;28;20051;-81
2023/07/14 07:03:04;;;;;;;2.58;1.77;;;20.60;60.50;;;;;;5058680;28;20032;-80
2023/07/14 07:05:37;;;;;;;1.83;1.50;;;20.70;60.50;;;;;;5041816;28;20039;-81
2023/07/14 07:08:04;;;;;;;2.13;1.63;;;20.70;60.60;;;;;;5058640;28;20033;-81
2023/07/14 07:10:30;;;;;;;2.47;1.63;;;20.70;60.50;;;;;;5058792;28;20477;-81
2023/07/14 07:12:56;;;;;;;2.25;1.65;;;20.70;60.40;;;;;;5041698;28;20374;-81
2023/07/14 07:15:22;;;;;;;2.33;1.67;;;20.70;60.40;;;;;;5041741;28;20035;-82
2023/07/14 07:17:48;;;;;;;1.83;1.63;;;20.80;60.40;;;;;;5025935;28;20501;-82
2023/07/14 07:20:14;;;;;;;1.88;1.60;;;20.80;60.30;;;;;;5041851;28;20435;-81
2023/07/14 07:22:41;;;;;;;2.13;1.52;;;20.80;60.30;;;;;;5076161;28;20028;-81
2023/07/14 07:25:08;;;;;;;2.03;1.70;;;20.90;60.40;;;;;;5058192;28;20107;-81
2023/07/14 07:27:34;;;;;;;1.85;1.70;;;20.90;60.40;;;;;;5058315;28;20032;-81
2023/07/14 07:30:00;;;;;;;2.58;1.90;;;20.90;60.30;;;;;;5057045;28;20036;-81
2023/07/14 07:32:30;;;;;;;1.60;1.45;;;20.90;60.30;;;;;;5041651;28;20032;-81
2023/07/14 07:34:59;;;;;;;1.60;1.50;;;21.00;60.30;;;;;;5058180;28;20024;-81
2023/07/14 07:37:31;;;;;;;2.05;1.60;;;21.00;60.20;;;;;;5058404;28;20449;-82
2023/07/14 07:39:58;;;;;;;1.63;1.45;;;21.00;60.20;;;;;;5058487;28;20039;-82
2023/07/14 07:42:23;;;;;;;2.35;1.80;;;21.10;60.80;;;;;;5041971;28;20119;-81
2023/07/14 07:44:49;;;;;;;2.30;1.60;;;21.10;60.10;;;;;;5041428;28;20119;-81
2023/07/14 07:47:15;;;;;;;2.00;1.50;;;21.10;60.00;;;;;;5041106;28;20024;-81
2023/07/14 07:49:41;;;;;;;2.08;1.65;;;21.20;59.90;;;;;;5075462;28;20057;-81
2023/07/14 07:52:08;;;;;;;1.98;1.60;;;21.30;59.90;;;;;;5057815;28;20029;-80
2023/07/14 07:54:34;;;;;;;2.30;1.88;;;21.30;59.80;;;;;;5057565;28;20079;-81
2023/07/14 07:57:00;;;;;;;2.30;1.60;;;21.40;59.80;;;;;;5040936;28;20123;-80
2023/07/14 07:59:26;;;;;;;2.38;1.60;;;21.40;59.60;;;;;;5057480;28;20162;-79
2023/07/14 08:01:51;;;;;;;2.22;1.67;;;21.50;59.60;;;;;;5075813;28;20040;-80
2023/07/14 08:04:18;;;;;;;1.48;1.38;;;21.60;59.50;;;;;;5057401;28;20027;-80
2023/07/14 08:06:44;;;;;;;2.58;1.50;;;21.60;59.40;;;;;;5075833;28;20056;-79
2023/07/14 08:09:10;;;;;;;1.80;1.38;;;21.70;59.30;;;;;;5040674;28;20055;-80
2023/07/14 08:11:36;;;;;;;2.42;1.45;;;21.70;59.20;;;;;;5057244;28;20465;-80
2023/07/14 08:14:03;;;;;;;1.65;1.48;;;21.80;59.10;;;;;;5057645;28;20039;-80
2023/07/14 08:16:30;;;;;;;1.92;1.42;;;21.80;59.00;;;;;;5040896;28;20037;-80
2023/07/14 08:18:56;;;;;;;1.60;1.42;;;21.90;58.90;;;;;;5075389;28;20029;-80
2023/07/14 08:21:22;;;;;;;1.95;1.38;;;22.00;58.90;;;;;;5058002;28;20029;-80
2023/07/14 08:23:48;;;;;;;1.70;1.60;;;22.00;58.70;;;;;;5057279;28;20029;-79
2023/07/14 08:26:14;;;;;;;1.80;1.40;;;22.10;58.70;;;;;;5057217;28;20123;-80
2023/07/14 08:28:40;;;;;;;2.00;1.50;;;22.20;58.60;;;;;;5057156;28;20032;-80
2023/07/14 08:31:09;;;;;;;2.42;1.60;;;22.30;58.50;;;;;;5057135;28;20029;-80
2023/07/14 08:33:36;;;;;;;2.35;1.55;;;22.40;58.50;;;;;;5057011;28;20027;-80
2023/07/14 08:36:03;;;;;;;1.95;1.40;;;22.40;58.40;;;;;;5057278;28;20487;-80
2023/07/14 08:38:32;;;;;;;2.33;1.60;;;22.50;58.30;;;;;;5056787;28;20028;-80
2023/07/14 08:41:25;;;;;;;1.50;1.38;;;22.50;58.20;;;;;;5056395;28;20028;-80
2023/07/14 08:44:17;;;;;;;1.92;1.30;;;22.60;58.20;;;;;;5057055;28;20028;-80
2023/07/14 08:46:57;;;;;;;1.60;1.25;;;22.70;58.10;;;;;;5074994;28;20028;-80
2023/07/14 08:49:39;;;;;;;1.60;1.40;;;22.70;58.00;;;;;;5056238;28;20032;-80
2023/07/14 08:52:26;;;;;;;2.40;1.45;;;22.80;58.00;;;;;;5056449;28;20099;-80
2023/07/14 08:55:15;;;;;;;2.25;1.40;;;22.90;58.00;;;;;;5057239;28;20038;-80
2023/07/14 08:57:51;;;;;;;1.15;1.05;;;22.90;57.90;;;;;;5056826;28;20082;-80
2023/07/14 09:00:27;;;;;;;1.98;1.40;;;23.00;57.80;;;;;;5056882;28;20111;-81
2023/07/14 09:03:24;;;;;;;1.65;1.30;;;23.00;57.80;;;;;;5074139;28;20028;-81
2023/07/14 09:05:53;;;;;;;1.45;1.33;;;23.00;57.70;;;;;;5074315;28;20058;-81
2023/07/14 09:08:25;;;;;;;1.38;1.27;;;23.20;57.70;;;;;;5073890;28;20036;-81
2023/07/14 09:11:00;;;;;;;1.48;1.33;;;23.20;57.70;;;;;;5056548;28;20043;-80
2023/07/14 09:13:58;;;;;;;1.70;1.50;;;23.20;57.70;;;;;;5056557;28;20186;-80
2023/07/14 09:16:28;;;;;;;1.25;1.15;;;23.30;57.70;;;;;;4985933;28;20089;-81
2023/07/14 09:19:17;;;;;;;1.42;1.13;;;23.30;57.50;;;;;;5072717;28;20032;-80
2023/07/14 09:21:56;;;;;;;1.30;1.20;;;23.40;57.60;;;;;;5074342;28;20032;-80
2023/07/14 09:24:38;;;;;;;1.40;1.20;;;23.50;57.50;;;;;;5055940;28;20029;-80
2023/07/14 09:27:13;;;;;;;1.40;1.17;;;23.60;57.50;;;;;;5074176;28;20024;-81
2023/07/14 09:29:44;;;;;;;1.20;1.10;;;23.60;57.40;;;;;;5074514;28;20036;-80
2023/07/14 09:32:30;;;;;;;1.35;1.20;;;23.70;57.30;;;;;;5073606;28;20036;-80
2023/07/14 09:34:58;;;;;;;1.85;1.30;;;23.80;57.30;;;;;;5055787;28;20054;-80
2023/07/14 09:37:42;;;;;;;1.70;1.30;;;23.80;57.20;;;;;;5073970;28;20029;-80
2023/07/14 09:40:24;;;;;;;1.60;1.23;;;23.90;57.20;;;;;;5055993;28;20155;-80
2023/07/14 09:42:55;;;;;;;2.08;1.30;;;24.00;57.10;;;;;;5073039;28;20050;-81
2023/07/14 09:45:33;;;;;;;1.30;1.20;;;24.00;57.00;;;;;;5039171;28;20123;-81
2023/07/14 09:48:11;;;;;;;1.45;1.33;;;24.10;57.00;;;;;;5055364;28;20020;-81
2023/07/14 09:50:41;;;;;;;1.35;1.23;;;24.20;57.00;;;;;;5052212;28;20048;-82
2023/07/14 09:53:08;;;;;;;1.63;1.30;;;24.20;56.80;;;;;;5052948;28;20024;-81
2023/07/14 09:55:52;;;;;;;2.38;1.30;;;24.30;56.80;;;;;;5054251;28;20065;-83
2023/07/14 09:58:23;;;;;;;1.48;1.30;;;24.40;56.80;;;;;;5054343;28;20036;-86
2023/07/14 10:00:51;;;;;;;1.80;1.27;;;24.50;56.60;;;;;;5052414;28;20058;-84
2023/07/14 10:03:19;;;;;;;1.88;1.42;;;24.50;56.50;;;;;;5053580;28;20036;-82
2023/07/14 10:05:57;;;;;;;1.23;1.13;;;24.60;56.50;;;;;;5053252;28;20025;-82
2023/07/14 10:08:27;;;;;;;1.50;1.30;;;24.60;56.40;;;;;;5053219;28;20025;-83
2023/07/14 10:10:58;;;;;;;1.27;1.17;;;24.70;56.30;;;;;;5053149;28;20029;-82
2023/07/14 10:13:26;;;;;;;1.95;1.58;;;24.80;56.90;;;;;;5052563;28;20039;-85
2023/07/14 10:16:03;;;;;;;1.50;1.20;;;24.80;56.20;;;;;;5052187;28;20131;-83
2023/07/14 10:18:44;;;;;;;2.03;1.30;;;24.90;56.20;;;;;;5053185;28;20040;-81
2023/07/14 10:21:26;;;;;;;1.45;1.20;;;24.90;56.10;;;;;;5053900;28;20071;-82
2023/07/14 10:24:17;;;;;;;1.35;1.20;;;25.00;56.10;;;;;;5054174;28;20025;-82
2023/07/14 10:26:54;;;;;;;1.95;1.30;;;25.10;56.10;;;;;;5046092;28;20043;-83
2023/07/14 10:29:24;;;;;;;1.65;1.20;;;25.10;55.90;;;;;;5047284;28;20037;-83
2023/07/14 10:32:09;;;;;;;1.40;1.00;;;25.20;56.00;;;;;;5054705;28;20104;-83
2023/07/14 10:34:57;;;;;;;;;;;25.20;55.90;;;;;;5058193;28;20058;-84
2023/07/14 10:37:27;;;;;;;1.20;1.10;;;25.30;55.80;;;;;;5061862;28;19940;-90
2023/07/14 10:40:11;;;;;;;1.30;1.20;;;25.40;55.80;;;;;;5065045;28;20037;-84
2023/07/14 10:42:42;;;;;;;2.22;1.40;;;25.40;55.80;;;;;;5061796;28;20200;-83
2023/07/14 10:45:13;;;;;;;1.42;1.27;;;25.40;55.80;;;;;;5062014;28;20033;-82
2023/07/14 10:48:23;;;;;;;1.48;1.30;;;25.50;55.80;;;;;;5054784;28;20044;-83
2023/07/14 10:51:07;;;;;;;1.83;1.60;;;25.50;55.80;;;;;;4956418;28;20496;-83
2023/07/14 10:53:55;;;;;;;1.55;1.27;;;25.60;55.80;;;;;;4972599;28;20479;-82
2023/07/14 10:56:45;;;;;;;1.67;1.27;;;25.70;55.80;;;;;;5035458;28;20052;-83
2023/07/14 10:59:44;;;;;;;1.70;1.33;;;25.70;55.70;;;;;;5051647;28;20485;-84
2023/07/14 11:02:19;;;;;;;1.17;1.08;;;25.70;55.70;;;;;;5033530;28;20049;-83
2023/07/14 11:04:51;;;;;;;1.48;1.10;;;25.80;55.60;;;;;;5055190;28;20029;-82
2023/07/14 11:07:28;;;;;;;2.28;1.35;;;25.80;55.60;;;;;;5056407;28;20079;-83
2023/07/14 11:09:55;;;;;;;1.65;1.25;;;25.80;55.60;;;;;;5056257;28;20033;-84
2023/07/14 11:12:39;;;;;;;1.50;1.20;;;25.90;55.60;;;;;;5055624;28;20078;-89
2023/07/14 11:15:25;;;;;;;1.27;1.10;;;25.90;55.60;;;;;;5056888;28;20033;-85
2023/07/14 11:18:00;;;;;;;2.00;1.30;;;26.00;55.60;;;;;;5055839;28;20062;-85
2023/07/14 11:20:36;;;;;;;1.30;1.10;;;26.00;55.60;;;;;;5056284;28;20035;-89
2023/07/14 11:23:27;;;;;;;1.50;1.40;;;26.00;55.50;;;;;;5056135;28;20044;-87
2023/07/14 11:26:01;;;;;;;1.85;1.40;;;26.10;56.10;;;;;;5058590;28;20465;-86
2023/07/14 11:28:45;;;;;;;1.38;1.02;;;26.10;55.40;;;;;;5048740;28;20546;-88
2023/07/14 11:31:26;;;;;;;1.75;1.40;;;26.10;55.40;;;;;;5065624;28;20095;-86
2023/07/14 11:34:16;;;;;;;1.75;1.10;;;26.20;55.40;;;;;;5057149;28;20041;-86
2023/07/14 11:37:08;;;;;;;1.73;1.38;;;26.10;55.30;;;;;;5055248;28;20028;-84
2023/07/14 11:39:56;;;;;;;1.67;1.30;;;26.20;55.30;;;;;;5055707;28;20033;-84
2023/07/14 11:42:34;;;;;;;1.52;1.25;;;26.20;55.30;;;;;;5055323;28;20029;-84
2023/07/14 11:45:03;;;;;;;1.67;1.33;;;26.20;55.20;;;;;;5055222;28;20060;-83
2023/07/14 11:47:41;;;;;;;1.55;1.20;;;26.20;55.20;;;;;;5055813;28;20031;-87
2023/07/14 11:50:17;;;;;;;1.65;1.25;;;26.20;55.20;;;;;;5054438;28;20076;-85
2023/07/14 11:53:04;;;;;;;1.30;1.10;;;26.30;55.20;;;;;;5054881;28;20082;-83
2023/07/14 11:55:32;;;;;;;2.13;1.40;;;26.30;55.20;;;;;;5054646;28;20457;-83
2023/07/14 11:58:20;;;;;;;1.63;1.30;;;26.30;55.10;;;;;;5054423;28;20040;-83
2023/07/14 12:01:13;;;;;;;1.42;1.20;;;26.30;55.20;;;;;;5054745;28;20033;-83
2023/07/14 12:03:43;;;;;;;1.40;1.15;;;26.40;55.10;;;;;;5054116;28;20025;-82
2023/07/14 12:06:12;;;;;;;1.20;1.10;;;26.40;55.10;;;;;;5054401;28;20110;-83
2023/07/14 12:08:41;;;;;;;1.77;1.30;;;26.40;55.00;;;;;;5054260;28;20033;-83
2023/07/14 12:11:49;;;;;;;1.77;1.40;;;26.50;55.00;;;;;;5037825;28;20044;-81
2023/07/14 12:14:36;;;;;;;1.67;1.30;;;26.50;55.70;;;;;;4958121;28;20035;-85
2023/07/14 12:17:25;;;;;;;1.80;1.42;;;26.50;55.00;;;;;;5068889;28;20045;-83
2023/07/14 12:19:55;;;;;;;1.83;1.60;;;26.50;54.90;;;;;;5053835;28;20033;-85
2023/07/14 12:22:39;;;;;;;1.63;1.30;;;26.60;55.00;;;;;;5055741;28;20029;-84
2023/07/14 12:25:22;;;;;;;1.75;1.30;;;26.50;54.90;;;;;;5054892;28;20090;-86
2023/07/14 12:27:53;;;;;;;1.90;1.40;;;26.60;54.90;;;;;;5055267;28;20032;-87
2023/07/14 12:30:29;;;;;;;1.83;1.30;;;26.60;54.90;;;;;;5054553;28;20075;-86
2023/07/14 12:33:13;;;;;;;1.33;1.10;;;26.60;54.80;;;;;;5054806;28;20029;-86
2023/07/14 12:35:39;;;;;;;2.03;1.50;;;26.60;54.80;;;;;;5054720;28;20500;-85
2023/07/14 12:38:23;;;;;;;1.80;1.30;;;26.70;54.80;;;;;;5054934;28;20029;-87
2023/07/14 12:40:53;;;;;;;1.65;1.17;;;26.70;54.90;;;;;;5037674;28;20032;-81
2023/07/14 12:43:23;;;;;;;1.70;1.25;;;26.70;54.80;;;;;;5037100;28;20386;-87
2023/07/14 12:45:49;;;;;;;1.50;1.35;;;26.70;54.80;;;;;;5054265;28;20100;-86
2023/07/14 12:48:15;;;;;;;1.95;1.40;;;26.80;54.80;;;;;;5022047;28;20029;-87
2023/07/14 12:50:43;;;;;;;2.67;1.40;;;26.80;54.80;;;;;;5021104;28;20087;-86
2023/07/14 12:53:16;;;;;;;1.27;1.17;;;26.80;54.70;;;;;;5037827;28;20040;-84
2023/07/14 12:55:44;;;;;;;1.63;1.35;;;26.90;54.70;;;;;;5070796;28;20114;-85
2023/07/14 12:58:20;;;;;;;1.55;1.20;;;26.90;54.70;;;;;;5054778;28;20151;-86
2023/07/14 13:00:53;;;;;;;1.80;1.50;;;27.00;54.70;;;;;;5054179;28;20032;-85
2023/07/14 13:03:19;;;;;;;2.33;1.20;;;27.00;54.70;;;;;;5054081;28;20090;-86
2023/07/14 13:05:48;;;;;;;2.33;1.40;;;27.00;54.60;;;;;;5037346;28;20033;-87
2023/07/14 13:08:20;;;;;;;1.27;1.17;;;27.00;54.60;;;;;;5004716;28;20029;-84
2023/07/14 13:10:49;;;;;;;1.33;1.20;;;27.00;54.60;;;;;;5053512;28;20458;-85